sensor_id;sensor_type;location;lat;lon;timestamp;P1;durP1;ratioP1;P2;durP2;ratioP2
9819;SDS011;4949;48.482;9.206;2023-03-20T00:03:08;2.40;;;2.20;;
9819;SDS011;4949;48.482;9.206;2023-03-20T00:08:11;2.10;;;2.00;;
9819;SDS011;4949;48.482;9.206;2023-03-20T00:13:17;2.23;;;1.90;;
9819;SDS011;4949;48.482;9.206;2023-03-20T00:18:28;2.70;;;1.90;;
9819;SDS011;4949;48.482;9.206;2023-03-20T00:23:29;1.60;;;1.50;;
9819;SDS011;4949;48.482;9.206;2023-03-20T00:28:39;1.73;;;1.63;;
9819;SDS011;4949;48.482;9.206;2023-03-20T00:33:42;1.90;;;1.70;;
9819;SDS011;4949;48.482;9.206;2023-03-20T00:38:43;1.73;;;1.63;;
9819;SDS011;4949;48.482;9.206;2023-03-20T00:43:43;1.80;;;1.70;;
9819;SDS011;4949;48.482;9.206;2023-03-20T00:48:48;1.83;;;1.73;;
9819;SDS011;4949;48.482;9.206;2023-03-20T00:53:54;2.13;;;1.93;;
9819;SDS011;4949;48.482;9.206;2023-03-20T00:58:58;1.63;;;1.53;;
9819;SDS011;4949;48.482;9.206;2023-03-20T01:04:01;1.83;;;1.73;;
9819;SDS011;4949;48.482;9.206;2023-03-20T01:09:01;1.63;;;1.53;;
9819;SDS011;4949;48.482;9.206;2023-03-20T01:14:09;1.97;;;1.77;;
9819;SDS011;4949;48.482;9.206;2023-03-20T01:19:14;1.57;;;1.47;;
9819;SDS011;4949;48.482;9.206;2023-03-20T01:24:15;4.13;;;1.83;;
9819;SDS011;4949;48.482;9.206;2023-03-20T01:29:20;1.73;;;1.63;;
9819;SDS011;4949;48.482;9.206;2023-03-20T01:34:26;1.50;;;1.40;;
9819;SDS011;4949;48.482;9.206;2023-03-20T01:39:28;1.67;;;1.57;;
9819;SDS011;4949;48.482;9.206;2023-03-20T01:44:34;1.60;;;1.50;;
9819;SDS011;4949;48.482;9.206;2023-03-20T01:55:26;1.80;;;1.70;;
9819;SDS011;4949;48.482;9.206;2023-03-20T02:00:28;1.60;;;1.50;;
9819;SDS011;4949;48.482;9.206;2023-03-20T02:05:29;2.37;;;2.17;;
9819;SDS011;4949;48.482;9.206;2023-03-20T02:10:30;2.03;;;1.83;;
9819;SDS011;4949;48.482;9.206;2023-03-20T02:15:31;1.60;;;1.50;;
9819;SDS011;4949;48.482;9.206;2023-03-20T02:26:13;1.63;;;1.53;;
9819;SDS011;4949;48.482;9.206;2023-03-20T02:53:51;2.03;;;1.63;;
9819;SDS011;4949;48.482;9.206;2023-03-20T03:04:55;1.60;;;1.50;;
9819;SDS011;4949;48.482;9.206;2023-03-20T03:10:02;1.50;;;1.40;;
9819;SDS011;4949;48.482;9.206;2023-03-20T03:15:12;1.67;;;1.40;;
9819;SDS011;4949;48.482;9.206;2023-03-20T03:20:20;1.40;;;1.30;;
9819;SDS011;4949;48.482;9.206;2023-03-20T03:25:26;1.30;;;1.20;;
9819;SDS011;4949;48.482;9.206;2023-03-20T03:30:32;1.20;;;1.10;;
9819;SDS011;4949;48.482;9.206;2023-03-20T03:35:39;1.30;;;1.20;;
9819;SDS011;4949;48.482;9.206;2023-03-20T03:45:51;1.37;;;1.27;;
9819;SDS011;4949;48.482;9.206;2023-03-20T03:51:01;1.60;;;1.50;;
9819;SDS011;4949;48.482;9.206;2023-03-20T03:56:09;1.80;;;1.70;;
9819;SDS011;4949;48.482;9.206;2023-03-20T04:01:12;2.03;;;1.50;;
9819;SDS011;4949;48.482;9.206;2023-03-20T04:06:15;1.80;;;1.70;;
9819;SDS011;4949;48.482;9.206;2023-03-20T04:11:26;1.80;;;1.70;;
9819;SDS011;4949;48.482;9.206;2023-03-20T04:16:28;2.23;;;1.97;;
9819;SDS011;4949;48.482;9.206;2023-03-20T04:21:28;2.90;;;1.87;;
9819;SDS011;4949;48.482;9.206;2023-03-20T04:26:29;2.07;;;1.97;;
9819;SDS011;4949;48.482;9.206;2023-03-20T04:31:33;1.90;;;1.80;;
9819;SDS011;4949;48.482;9.206;2023-03-20T04:36:38;2.00;;;1.80;;
9819;SDS011;4949;48.482;9.206;2023-03-20T04:41:41;2.10;;;2.00;;
9819;SDS011;4949;48.482;9.206;2023-03-20T04:46:42;1.80;;;1.70;;
9819;SDS011;4949;48.482;9.206;2023-03-20T04:51:45;1.87;;;1.77;;
9819;SDS011;4949;48.482;9.206;2023-03-20T04:56:45;2.00;;;1.80;;
9819;SDS011;4949;48.482;9.206;2023-03-20T05:01:46;1.40;;;1.30;;
9819;SDS011;4949;48.482;9.206;2023-03-20T05:06:50;1.53;;;1.43;;
9819;SDS011;4949;48.482;9.206;2023-03-20T05:11:50;2.43;;;1.80;;
9819;SDS011;4949;48.482;9.206;2023-03-20T05:16:51;2.20;;;1.60;;
9819;SDS011;4949;48.482;9.206;2023-03-20T05:21:52;2.53;;;1.70;;
9819;SDS011;4949;48.482;9.206;2023-03-20T05:26:52;1.57;;;1.47;;
9819;SDS011;4949;48.482;9.206;2023-03-20T05:31:56;1.90;;;1.80;;
9819;SDS011;4949;48.482;9.206;2023-03-20T05:36:59;1.30;;;1.20;;
9819;SDS011;4949;48.482;9.206;2023-03-20T05:42:00;1.40;;;1.30;;
9819;SDS011;4949;48.482;9.206;2023-03-20T05:47:01;1.53;;;1.43;;
9819;SDS011;4949;48.482;9.206;2023-03-20T05:52:01;1.87;;;1.60;;
9819;SDS011;4949;48.482;9.206;2023-03-20T05:57:02;1.53;;;1.40;;
9819;SDS011;4949;48.482;9.206;2023-03-20T06:02:03;2.90;;;1.80;;
9819;SDS011;4949;48.482;9.206;2023-03-20T06:07:09;1.60;;;1.50;;
9819;SDS011;4949;48.482;9.206;2023-03-20T06:12:09;2.60;;;1.77;;
9819;SDS011;4949;48.482;9.206;2023-03-20T06:17:13;2.83;;;2.63;;
9819;SDS011;4949;48.482;9.206;2023-03-20T06:22:13;2.20;;;2.10;;
9819;SDS011;4949;48.482;9.206;2023-03-20T06:27:14;4.77;;;1.43;;
9819;SDS011;4949;48.482;9.206;2023-03-20T06:32:15;1.50;;;1.40;;
9819;SDS011;4949;48.482;9.206;2023-03-20T06:37:17;2.20;;;2.00;;
9819;SDS011;4949;48.482;9.206;2023-03-20T06:42:19;2.33;;;1.77;;
9819;SDS011;4949;48.482;9.206;2023-03-20T06:47:20;1.67;;;1.57;;
9819;SDS011;4949;48.482;9.206;2023-03-20T06:52:24;4.10;;;2.80;;
9819;SDS011;4949;48.482;9.206;2023-03-20T06:57:24;1.77;;;1.67;;
9819;SDS011;4949;48.482;9.206;2023-03-20T07:02:26;1.80;;;1.70;;
9819;SDS011;4949;48.482;9.206;2023-03-20T07:07:27;1.60;;;1.50;;
9819;SDS011;4949;48.482;9.206;2023-03-20T07:12:28;2.13;;;1.73;;
9819;SDS011;4949;48.482;9.206;2023-03-20T07:17:29;2.07;;;1.90;;
9819;SDS011;4949;48.482;9.206;2023-03-20T07:22:30;1.80;;;1.70;;
9819;SDS011;4949;48.482;9.206;2023-03-20T07:27:33;1.70;;;1.60;;
9819;SDS011;4949;48.482;9.206;2023-03-20T07:32:38;2.00;;;1.80;;
9819;SDS011;4949;48.482;9.206;2023-03-20T07:37:38;1.77;;;1.67;;
9819;SDS011;4949;48.482;9.206;2023-03-20T07:42:43;1.93;;;1.60;;
9819;SDS011;4949;48.482;9.206;2023-03-20T07:47:48;1.50;;;1.40;;
9819;SDS011;4949;48.482;9.206;2023-03-20T07:52:57;1.63;;;1.30;;
9819;SDS011;4949;48.482;9.206;2023-03-20T07:57:58;1.93;;;1.50;;
9819;SDS011;4949;48.482;9.206;2023-03-20T08:03:07;1.83;;;1.63;;
9819;SDS011;4949;48.482;9.206;2023-03-20T08:08:10;1.50;;;1.40;;
9819;SDS011;4949;48.482;9.206;2023-03-20T08:13:14;2.07;;;1.90;;
9819;SDS011;4949;48.482;9.206;2023-03-20T08:18:15;1.70;;;1.60;;
9819;SDS011;4949;48.482;9.206;2023-03-20T08:23:17;2.40;;;1.87;;
9819;SDS011;4949;48.482;9.206;2023-03-20T08:28:18;1.90;;;1.80;;
9819;SDS011;4949;48.482;9.206;2023-03-20T08:33:20;3.87;;;1.83;;
9819;SDS011;4949;48.482;9.206;2023-03-20T08:38:20;2.67;;;1.97;;
9819;SDS011;4949;48.482;9.206;2023-03-20T08:43:21;3.47;;;2.17;;
9819;SDS011;4949;48.482;9.206;2023-03-20T08:48:24;1.90;;;1.80;;
9819;SDS011;4949;48.482;9.206;2023-03-20T08:53:25;2.67;;;1.53;;
9819;SDS011;4949;48.482;9.206;2023-03-20T08:58:26;2.50;;;1.60;;
9819;SDS011;4949;48.482;9.206;2023-03-20T09:03:28;1.63;;;1.53;;
9819;SDS011;4949;48.482;9.206;2023-03-20T09:08:31;1.70;;;1.60;;
9819;SDS011;4949;48.482;9.206;2023-03-20T09:13:34;1.90;;;1.80;;
9819;SDS011;4949;48.482;9.206;2023-03-20T09:18:38;1.90;;;1.77;;
9819;SDS011;4949;48.482;9.206;2023-03-20T09:23:38;2.07;;;1.80;;
9819;SDS011;4949;48.482;9.206;2023-03-20T09:28:42;1.77;;;1.67;;
9819;SDS011;4949;48.482;9.206;2023-03-20T09:33:47;2.43;;;1.80;;
9819;SDS011;4949;48.482;9.206;2023-03-20T09:38:48;2.30;;;1.60;;
9819;SDS011;4949;48.482;9.206;2023-03-20T09:55:32;1.50;;;1.30;;
9819;SDS011;4949;48.482;9.206;2023-03-20T10:00:39;1.40;;;1.30;;
9819;SDS011;4949;48.482;9.206;2023-03-20T10:05:45;1.37;;;1.27;;
9819;SDS011;4949;48.482;9.206;2023-03-20T10:27:19;1.50;;;1.40;;
9819;SDS011;4949;48.482;9.206;2023-03-20T10:43:05;2.60;;;1.30;;
9819;SDS011;4949;48.482;9.206;2023-03-20T10:58:53;1.40;;;1.30;;
9819;SDS011;4949;48.482;9.206;2023-03-20T11:04:01;2.53;;;1.90;;
9819;SDS011;4949;48.482;9.206;2023-03-20T11:09:14;1.87;;;1.70;;
9819;SDS011;4949;48.482;9.206;2023-03-20T11:14:26;1.67;;;1.57;;
9819;SDS011;4949;48.482;9.206;2023-03-20T11:19:36;1.40;;;1.30;;
9819;SDS011;4949;48.482;9.206;2023-03-20T11:24:40;1.50;;;1.40;;
9819;SDS011;4949;48.482;9.206;2023-03-20T11:29:45;1.90;;;1.80;;
9819;SDS011;4949;48.482;9.206;2023-03-20T11:34:48;1.83;;;1.63;;
9819;SDS011;4949;48.482;9.206;2023-03-20T11:40:35;1.50;;;1.40;;
9819;SDS011;4949;48.482;9.206;2023-03-20T11:45:15;1.83;;;1.73;;
9819;SDS011;4949;48.482;9.206;2023-03-20T11:50:31;1.53;;;1.43;;
9819;SDS011;4949;48.482;9.206;2023-03-20T11:55:39;1.50;;;1.40;;
9819;SDS011;4949;48.482;9.206;2023-03-20T12:00:40;2.63;;;1.37;;
9819;SDS011;4949;48.482;9.206;2023-03-20T12:05:42;1.70;;;1.60;;
9819;SDS011;4949;48.482;9.206;2023-03-20T12:10:45;1.40;;;1.30;;
9819;SDS011;4949;48.482;9.206;2023-03-20T12:15:56;1.83;;;1.40;;
9819;SDS011;4949;48.482;9.206;2023-03-20T12:21:17;2.00;;;1.80;;
9819;SDS011;4949;48.482;9.206;2023-03-20T12:26:31;1.73;;;1.63;;
9819;SDS011;4949;48.482;9.206;2023-03-20T12:32:00;1.80;;;1.70;;
9819;SDS011;4949;48.482;9.206;2023-03-20T12:37:08;2.20;;;1.80;;
9819;SDS011;4949;48.482;9.206;2023-03-20T12:42:17;1.80;;;1.70;;
9819;SDS011;4949;48.482;9.206;2023-03-20T13:21:11;1.83;;;1.73;;
9819;SDS011;4949;48.482;9.206;2023-03-20T13:42:10;1.87;;;1.53;;
9819;SDS011;4949;48.482;9.206;2023-03-20T13:47:25;1.90;;;1.53;;
9819;SDS011;4949;48.482;9.206;2023-03-20T13:52:28;1.50;;;1.40;;
9819;SDS011;4949;48.482;9.206;2023-03-20T14:03:02;1.80;;;1.70;;
9819;SDS011;4949;48.482;9.206;2023-03-20T14:13:29;1.77;;;1.67;;
9819;SDS011;4949;48.482;9.206;2023-03-20T14:18:33;2.27;;;1.97;;
9819;SDS011;4949;48.482;9.206;2023-03-20T14:28:57;2.60;;;2.13;;
9819;SDS011;4949;48.482;9.206;2023-03-20T15:01:04;1.50;;;1.40;;
9819;SDS011;4949;48.482;9.206;2023-03-20T15:06:24;1.90;;;1.80;;
9819;SDS011;4949;48.482;9.206;2023-03-20T15:11:26;1.50;;;1.40;;
9819;SDS011;4949;48.482;9.206;2023-03-20T15:16:29;2.70;;;1.30;;
9819;SDS011;4949;48.482;9.206;2023-03-20T15:21:37;1.53;;;1.43;;
9819;SDS011;4949;48.482;9.206;2023-03-20T15:26:42;2.07;;;1.60;;
9819;SDS011;4949;48.482;9.206;2023-03-20T15:31:42;1.60;;;1.40;;
9819;SDS011;4949;48.482;9.206;2023-03-20T15:36:45;1.97;;;1.63;;
9819;SDS011;4949;48.482;9.206;2023-03-20T15:41:51;1.50;;;1.40;;
9819;SDS011;4949;48.482;9.206;2023-03-20T15:52:32;2.03;;;1.70;;
9819;SDS011;4949;48.482;9.206;2023-03-20T15:57:51;1.60;;;1.50;;
9819;SDS011;4949;48.482;9.206;2023-03-20T16:02:58;2.00;;;1.80;;
9819;SDS011;4949;48.482;9.206;2023-03-20T16:13:30;1.80;;;1.70;;
9819;SDS011;4949;48.482;9.206;2023-03-20T16:18:37;2.00;;;1.80;;
9819;SDS011;4949;48.482;9.206;2023-03-20T16:23:40;3.30;;;1.50;;
9819;SDS011;4949;48.482;9.206;2023-03-20T16:28:45;1.90;;;1.70;;
9819;SDS011;4949;48.482;9.206;2023-03-20T16:33:49;2.13;;;1.60;;
9819;SDS011;4949;48.482;9.206;2023-03-20T16:39:07;2.13;;;2.03;;
9819;SDS011;4949;48.482;9.206;2023-03-20T16:44:13;2.13;;;1.93;;
9819;SDS011;4949;48.482;9.206;2023-03-20T16:54:33;1.77;;;1.67;;
9819;SDS011;4949;48.482;9.206;2023-03-20T16:59:37;1.83;;;1.73;;
9819;SDS011;4949;48.482;9.206;2023-03-20T17:04:39;3.20;;;2.03;;
9819;SDS011;4949;48.482;9.206;2023-03-20T17:15:19;2.27;;;2.07;;
9819;SDS011;4949;48.482;9.206;2023-03-20T17:20:26;2.80;;;2.10;;
9819;SDS011;4949;48.482;9.206;2023-03-20T17:25:29;2.40;;;2.03;;
9819;SDS011;4949;48.482;9.206;2023-03-20T17:30:31;2.30;;;2.10;;
9819;SDS011;4949;48.482;9.206;2023-03-20T17:35:32;2.03;;;1.87;;
9819;SDS011;4949;48.482;9.206;2023-03-20T17:40:32;3.87;;;2.37;;
9819;SDS011;4949;48.482;9.206;2023-03-20T17:45:33;3.47;;;3.13;;
9819;SDS011;4949;48.482;9.206;2023-03-20T17:50:36;4.70;;;4.40;;
9819;SDS011;4949;48.482;9.206;2023-03-20T17:55:37;2.70;;;2.50;;
9819;SDS011;4949;48.482;9.206;2023-03-20T18:00:38;2.80;;;2.20;;
9819;SDS011;4949;48.482;9.206;2023-03-20T18:05:38;4.40;;;3.03;;
9819;SDS011;4949;48.482;9.206;2023-03-20T18:10:40;8.43;;;3.90;;
9819;SDS011;4949;48.482;9.206;2023-03-20T18:15:42;3.73;;;3.33;;
9819;SDS011;4949;48.482;9.206;2023-03-20T18:20:44;4.17;;;3.70;;
9819;SDS011;4949;48.482;9.206;2023-03-20T18:25:46;3.33;;;3.03;;
9819;SDS011;4949;48.482;9.206;2023-03-20T18:30:49;2.40;;;2.17;;
9819;SDS011;4949;48.482;9.206;2023-03-20T18:35:50;2.37;;;2.17;;
9819;SDS011;4949;48.482;9.206;2023-03-20T18:40:51;2.70;;;2.10;;
9819;SDS011;4949;48.482;9.206;2023-03-20T18:45:54;2.83;;;2.30;;
9819;SDS011;4949;48.482;9.206;2023-03-20T18:50:55;2.30;;;2.10;;
9819;SDS011;4949;48.482;9.206;2023-03-20T18:56:00;3.50;;;3.20;;
9819;SDS011;4949;48.482;9.206;2023-03-20T19:01:01;2.90;;;2.70;;
9819;SDS011;4949;48.482;9.206;2023-03-20T19:06:02;2.20;;;1.90;;
9819;SDS011;4949;48.482;9.206;2023-03-20T19:11:06;2.80;;;1.90;;
9819;SDS011;4949;48.482;9.206;2023-03-20T19:16:22;2.30;;;2.10;;
9819;SDS011;4949;48.482;9.206;2023-03-20T19:21:26;2.87;;;2.50;;
9819;SDS011;4949;48.482;9.206;2023-03-20T19:26:28;2.23;;;2.03;;
9819;SDS011;4949;48.482;9.206;2023-03-20T19:31:33;2.10;;;2.00;;
9819;SDS011;4949;48.482;9.206;2023-03-20T19:36:36;2.60;;;2.30;;
9819;SDS011;4949;48.482;9.206;2023-03-20T19:41:37;3.07;;;2.83;;
9819;SDS011;4949;48.482;9.206;2023-03-20T19:46:38;4.03;;;3.57;;
9819;SDS011;4949;48.482;9.206;2023-03-20T19:51:38;4.10;;;3.77;;
9819;SDS011;4949;48.482;9.206;2023-03-20T19:56:40;4.30;;;3.30;;
9819;SDS011;4949;48.482;9.206;2023-03-20T20:01:43;2.73;;;2.53;;
9819;SDS011;4949;48.482;9.206;2023-03-20T20:06:44;2.33;;;2.13;;
9819;SDS011;4949;48.482;9.206;2023-03-20T20:11:45;2.97;;;2.67;;
9819;SDS011;4949;48.482;9.206;2023-03-20T20:16:46;2.63;;;2.43;;
9819;SDS011;4949;48.482;9.206;2023-03-20T20:21:51;6.50;;;3.10;;
9819;SDS011;4949;48.482;9.206;2023-03-20T20:26:52;4.00;;;3.60;;
9819;SDS011;4949;48.482;9.206;2023-03-20T20:31:54;9.07;;;5.70;;
9819;SDS011;4949;48.482;9.206;2023-03-20T20:36:58;7.53;;;4.67;;
9819;SDS011;4949;48.482;9.206;2023-03-20T20:41:59;4.40;;;4.00;;
9819;SDS011;4949;48.482;9.206;2023-03-20T20:47:02;5.40;;;3.53;;
9819;SDS011;4949;48.482;9.206;2023-03-20T20:52:06;3.73;;;3.20;;
9819;SDS011;4949;48.482;9.206;2023-03-20T20:57:08;3.53;;;3.10;;
9819;SDS011;4949;48.482;9.206;2023-03-20T21:02:10;3.40;;;3.07;;
9819;SDS011;4949;48.482;9.206;2023-03-20T21:07:12;3.23;;;2.93;;
9819;SDS011;4949;48.482;9.206;2023-03-20T21:12:15;3.67;;;3.00;;
9819;SDS011;4949;48.482;9.206;2023-03-20T21:17:18;3.77;;;3.27;;
9819;SDS011;4949;48.482;9.206;2023-03-20T21:22:18;5.20;;;3.50;;
9819;SDS011;4949;48.482;9.206;2023-03-20T21:27:22;4.90;;;4.10;;
9819;SDS011;4949;48.482;9.206;2023-03-20T21:32:24;5.13;;;3.90;;
9819;SDS011;4949;48.482;9.206;2023-03-20T21:37:30;4.70;;;4.20;;
9819;SDS011;4949;48.482;9.206;2023-03-20T21:42:31;4.87;;;4.37;;
9819;SDS011;4949;48.482;9.206;2023-03-20T21:47:36;4.83;;;4.30;;
9819;SDS011;4949;48.482;9.206;2023-03-20T21:52:39;4.77;;;4.37;;
9819;SDS011;4949;48.482;9.206;2023-03-20T21:57:40;9.47;;;8.47;;
9819;SDS011;4949;48.482;9.206;2023-03-20T22:02:41;5.80;;;5.30;;
9819;SDS011;4949;48.482;9.206;2023-03-20T22:07:45;5.63;;;5.13;;
9819;SDS011;4949;48.482;9.206;2023-03-20T22:12:45;6.40;;;4.87;;
9819;SDS011;4949;48.482;9.206;2023-03-20T22:17:51;5.07;;;4.67;;
9819;SDS011;4949;48.482;9.206;2023-03-20T22:22:55;5.73;;;4.03;;
9819;SDS011;4949;48.482;9.206;2023-03-20T22:27:55;3.60;;;3.30;;
9819;SDS011;4949;48.482;9.206;2023-03-20T22:32:56;3.90;;;3.50;;
9819;SDS011;4949;48.482;9.206;2023-03-20T22:37:57;3.90;;;3.60;;
9819;SDS011;4949;48.482;9.206;2023-03-20T22:42:58;4.60;;;4.20;;
9819;SDS011;4949;48.482;9.206;2023-03-20T22:48:01;4.60;;;3.80;;
9819;SDS011;4949;48.482;9.206;2023-03-20T22:53:02;3.80;;;3.50;;
9819;SDS011;4949;48.482;9.206;2023-03-20T22:58:03;3.70;;;3.40;;
9819;SDS011;4949;48.482;9.206;2023-03-20T23:03:04;3.90;;;3.50;;
9819;SDS011;4949;48.482;9.206;2023-03-20T23:08:06;4.17;;;3.77;;
9819;SDS011;4949;48.482;9.206;2023-03-20T23:13:10;3.70;;;3.40;;
9819;SDS011;4949;48.482;9.206;2023-03-20T23:18:12;4.10;;;3.80;;
9819;SDS011;4949;48.482;9.206;2023-03-20T23:23:14;4.20;;;3.83;;
9819;SDS011;4949;48.482;9.206;2023-03-20T23:28:15;4.43;;;3.97;;
9819;SDS011;4949;48.482;9.206;2023-03-20T23:33:16;3.80;;;3.10;;
9819;SDS011;4949;48.482;9.206;2023-03-20T23:38:19;3.73;;;3.43;;
9819;SDS011;4949;48.482;9.206;2023-03-20T23:43:20;4.30;;;3.90;;
9819;SDS011;4949;48.482;9.206;2023-03-20T23:48:23;6.37;;;3.73;;
9819;SDS011;4949;48.482;9.206;2023-03-20T23:53:26;7.10;;;4.97;;
9819;SDS011;4949;48.482;9.206;2023-03-20T23:58:28;4.03;;;3.63;;
